PWSweather.com
Personal Weather Stations
Station Observations
WD4JKH
Forsyth, GA 31029

Forsyth, GA 31029

Lat: 33.033225, Lon: -83.927995

Elevation: 709

Station Type: Davis Vantage VUE

High Low Average
Temperature 53.5°F11.9°C 41.4°F5.2°C 47.9°F8.8°C
Dew Point 52.9°F11.6°C 38.2°F3.4°C 45.3°F7.4°C
Winds 12.7 mph 20.4 kmh Calm Calm 5.0 mph WSW8.0 kmh WSW
Wind Gusts 30.0 mph48.3 kmh 1.0 mph1.6 kmh 15.0 mph24.1 kmh
Humidity 98% 83% 91%
Pressure 29.90 in1012.5 mb 29.24 in990.2 mb -
Precipitation 1.58 in40.1 mm - -
Hour Temp Dew Point Humidity Winds Wind Gusts Pressure Precip Precip Rate Daily Precip Total
12:00 AM 53.5°F11.9°C 52.9°F11.6°C 98% 1.0 mph ENE1.6 kmh ENE 2.0 mph3.2 kmh 29.35 in993.9 mb 0.00 in0.0 mm 0.00 in0.0 mm 1.58 in40.1 mm
12:05 AM 53.4°F11.9°C 52.8°F11.6°C 98% 1.6 mph ENE2.6 kmh ENE 2.0 mph3.2 kmh 29.34 in993.6 mb 0.00 in0.0 mm 0.00 in0.0 mm 0.00 in0.0 mm
12:10 AM 53.4°F11.9°C 52.8°F11.6°C 98% 1.0 mph NE1.6 kmh NE 2.0 mph3.2 kmh 29.34 in993.6 mb 0.00 in0.0 mm 0.00 in0.0 mm 0.00 in0.0 mm
12:15 AM 53.4°F11.9°C 52.8°F11.6°C 98% 1.0 mph ENE1.6 kmh ENE 2.0 mph3.2 kmh 29.34 in993.6 mb 0.00 in0.0 mm 0.00 in0.0 mm 0.00 in0.0 mm
12:20 AM 53.4°F11.9°C 52.8°F11.6°C 98% 1.0 mph ENE1.6 kmh ENE 2.0 mph3.2 kmh 29.33 in993.2 mb 0.01 in0.3 mm 0.12 in3.0 mm 0.01 in0.3 mm
12:25 AM 53.4°F11.9°C 52.8°F11.6°C 98% Calm Calm 1.0 mph1.6 kmh 29.33 in993.2 mb 0.01 in0.3 mm 0.00 in0.0 mm 0.01 in0.3 mm
12:30 AM 53.4°F11.9°C 52.8°F11.6°C 98% Calm Calm 1.0 mph1.6 kmh 29.33 in993.2 mb 0.02 in0.5 mm 0.12 in3.0 mm 0.02 in0.5 mm
12:35 AM 53.4°F11.9°C 52.8°F11.6°C 98% 1.0 mph NE1.6 kmh NE 1.0 mph1.6 kmh 29.32 in992.9 mb 0.05 in1.3 mm 0.36 in9.1 mm 0.05 in1.3 mm
12:40 AM 53.4°F11.9°C 52.8°F11.6°C 98% Calm Calm 1.0 mph1.6 kmh 29.32 in992.9 mb 0.05 in1.3 mm 0.00 in0.0 mm 0.05 in1.3 mm
12:45 AM 53.4°F11.9°C 52.8°F11.6°C 98% Calm Calm 1.0 mph1.6 kmh 29.32 in992.9 mb 0.05 in1.3 mm 0.00 in0.0 mm 0.05 in1.3 mm
12:50 AM 53.4°F11.9°C 52.8°F11.6°C 98% 1.0 mph NE1.6 kmh NE 1.0 mph1.6 kmh 29.31 in992.6 mb 0.05 in1.3 mm 0.00 in0.0 mm 0.05 in1.3 mm
12:55 AM 53.3°F11.8°C 52.7°F11.5°C 98% 1.1 mph NNE1.8 kmh NNE 2.0 mph3.2 kmh 29.30 in992.2 mb 0.06 in1.5 mm 0.12 in3.0 mm 0.06 in1.5 mm
01:00 AM 53.3°F11.8°C 52.7°F11.5°C 98% 1.1 mph NE1.8 kmh NE 2.0 mph3.2 kmh 29.30 in992.2 mb 0.06 in1.5 mm 0.00 in0.0 mm 0.06 in1.5 mm
01:05 AM 53.3°F11.8°C 52.7°F11.5°C 98% 1.1 mph NE1.8 kmh NE 3.0 mph4.8 kmh 29.30 in992.2 mb 0.06 in1.5 mm 0.00 in0.0 mm 0.06 in1.5 mm
01:10 AM 53.3°F11.8°C 52.7°F11.5°C 98% 1.4 mph NE2.3 kmh NE 3.0 mph4.8 kmh 29.29 in991.9 mb 0.06 in1.5 mm 0.00 in0.0 mm 0.06 in1.5 mm
01:15 AM 53.3°F11.8°C 52.7°F11.5°C 98% 1.0 mph NE1.6 kmh NE 3.0 mph4.8 kmh 29.29 in991.9 mb 0.06 in1.5 mm 0.00 in0.0 mm 0.06 in1.5 mm
01:20 AM 53.3°F11.8°C 52.7°F11.5°C 98% 1.0 mph ENE1.6 kmh ENE 3.0 mph4.8 kmh 29.29 in991.9 mb 0.05 in1.3 mm 0.00 in0.0 mm 0.06 in1.5 mm
01:25 AM 53.3°F11.8°C 52.7°F11.5°C 98% 1.0 mph ENE1.6 kmh ENE 2.0 mph3.2 kmh 29.29 in991.9 mb 0.05 in1.3 mm 0.00 in0.0 mm 0.06 in1.5 mm
01:30 AM 53.3°F11.8°C 52.7°F11.5°C 98% Calm Calm 2.0 mph3.2 kmh 29.29 in991.9 mb 0.05 in1.3 mm 0.00 in0.0 mm 0.07 in1.8 mm
01:35 AM 53.4°F11.9°C 52.8°F11.6°C 98% 1.0 mph NE1.6 kmh NE 2.0 mph3.2 kmh 29.28 in991.5 mb 0.03 in0.8 mm 0.00 in0.0 mm 0.08 in2.0 mm
01:40 AM 53.4°F11.9°C 52.8°F11.6°C 98% Calm Calm 1.0 mph1.6 kmh 29.28 in991.5 mb 0.04 in1.0 mm 0.12 in3.0 mm 0.09 in2.3 mm
01:45 AM 53.4°F11.9°C 52.8°F11.6°C 98% Calm Calm 1.0 mph1.6 kmh 29.28 in991.5 mb 0.04 in1.0 mm 0.00 in0.0 mm 0.09 in2.3 mm
01:50 AM 53.4°F11.9°C 52.8°F11.6°C 98% 1.0 mph ENE1.6 kmh ENE 1.0 mph1.6 kmh 29.28 in991.5 mb 0.05 in1.3 mm 0.12 in3.0 mm 0.10 in2.5 mm
01:55 AM 53.4°F11.9°C 52.8°F11.6°C 98% Calm Calm 1.0 mph1.6 kmh 29.28 in991.5 mb 0.07 in1.8 mm 0.24 in6.1 mm 0.13 in3.3 mm
02:00 AM 53.3°F11.8°C 52.7°F11.5°C 98% 1.0 mph W1.6 kmh W 1.0 mph1.6 kmh 29.28 in991.5 mb 0.10 in2.5 mm 0.03 in0.8 mm 0.16 in4.1 mm
02:05 AM 53.3°F11.8°C 52.7°F11.5°C 98% Calm Calm 1.0 mph1.6 kmh 29.28 in991.5 mb 0.14 in3.6 mm 0.48 in12.2 mm 0.20 in5.1 mm
02:10 AM 53.3°F11.8°C 52.7°F11.5°C 98% Calm Calm 1.0 mph1.6 kmh 29.27 in991.2 mb 0.17 in4.3 mm 0.36 in9.1 mm 0.23 in5.8 mm
02:15 AM 53.3°F11.8°C 52.7°F11.5°C 98% 1.0 mph WNW1.6 kmh WNW 1.0 mph1.6 kmh 29.27 in991.2 mb 0.18 in4.6 mm 0.12 in3.0 mm 0.24 in6.1 mm
02:20 AM 53.2°F11.8°C 52.6°F11.4°C 98% 1.4 mph NW2.3 kmh NW 3.0 mph4.8 kmh 29.27 in991.2 mb 0.18 in4.6 mm 0.00 in0.0 mm 0.24 in6.1 mm
02:25 AM 53.2°F11.8°C 52.6°F11.4°C 98% 2.0 mph W3.2 kmh W 5.0 mph8.0 kmh 29.27 in991.2 mb 0.19 in4.8 mm 0.12 in3.0 mm 0.25 in6.4 mm
02:30 AM 53.1°F11.7°C 52.5°F11.4°C 98% 2.9 mph NW4.7 kmh NW 7.0 mph11.3 kmh 29.27 in991.2 mb 0.18 in4.6 mm 0.00 in0.0 mm 0.25 in6.4 mm
02:35 AM 53.0°F11.7°C 52.4°F11.3°C 98% 2.2 mph W3.5 kmh W 7.0 mph11.3 kmh 29.27 in991.2 mb 0.19 in4.8 mm 0.12 in3.0 mm 0.27 in6.9 mm
02:40 AM 52.9°F11.6°C 52.4°F11.3°C 98% 2.3 mph NW3.7 kmh NW 7.0 mph11.3 kmh 29.27 in991.2 mb 0.19 in4.8 mm 0.00 in0.0 mm 0.28 in7.1 mm
02:45 AM 52.9°F11.6°C 52.4°F11.3°C 98% 1.5 mph WNW2.4 kmh WNW 7.0 mph11.3 kmh 29.26 in990.9 mb 0.21 in5.3 mm 0.24 in6.1 mm 0.30 in7.6 mm
02:50 AM 52.9°F11.6°C 52.3°F11.3°C 98% 1.5 mph W2.4 kmh W 5.0 mph8.0 kmh 29.27 in991.2 mb 0.23 in5.8 mm 0.24 in6.1 mm 0.33 in8.4 mm
02:55 AM 52.9°F11.6°C 52.3°F11.3°C 98% 2.0 mph W3.2 kmh W 5.0 mph8.0 kmh 29.27 in991.2 mb 0.28 in7.1 mm 0.60 in15.2 mm 0.41 in10.4 mm
03:00 AM 52.8°F11.6°C 52.2°F11.2°C 98% 3.9 mph W6.3 kmh W 9.0 mph14.5 kmh 29.27 in991.2 mb 0.31 in7.9 mm 0.03 in0.8 mm 0.47 in11.9 mm
03:05 AM 52.8°F11.6°C 52.2°F11.2°C 98% 4.3 mph W6.9 kmh W 9.0 mph14.5 kmh 29.28 in991.5 mb 0.31 in7.9 mm 0.00 in0.0 mm 0.51 in13.0 mm
03:10 AM 52.6°F11.4°C 52.0°F11.1°C 98% 6.3 mph NW10.1 kmh NW 12.0 mph19.3 kmh 29.26 in990.9 mb 0.31 in7.9 mm 0.00 in0.0 mm 0.54 in13.7 mm
03:15 AM 52.4°F11.3°C 51.8°F11.0°C 98% 4.8 mph NW7.7 kmh NW 13.0 mph20.9 kmh 29.26 in990.9 mb 0.33 in8.4 mm 0.24 in6.1 mm 0.57 in14.5 mm
03:20 AM 52.2°F11.2°C 51.6°F10.9°C 98% 3.0 mph NNW4.8 kmh NNW 18.0 mph29.0 kmh 29.25 in990.5 mb 0.33 in8.4 mm 0.00 in0.0 mm 0.57 in14.5 mm
03:25 AM 51.9°F11.1°C 51.3°F10.7°C 98% 4.0 mph NW6.4 kmh NW 18.0 mph29.0 kmh 29.25 in990.5 mb 0.32 in8.1 mm 0.00 in0.0 mm 0.57 in14.5 mm
03:30 AM 51.7°F10.9°C 51.2°F10.7°C 98% 3.4 mph NNW5.5 kmh NNW 18.0 mph29.0 kmh 29.24 in990.2 mb 0.33 in8.4 mm 0.12 in3.0 mm 0.58 in14.7 mm
03:35 AM 51.6°F10.9°C 51.0°F10.6°C 98% 3.5 mph NW5.6 kmh NW 14.0 mph22.5 kmh 29.25 in990.5 mb 0.31 in7.9 mm 0.00 in0.0 mm 0.58 in14.7 mm
03:40 AM 51.5°F10.8°C 50.9°F10.5°C 98% 3.3 mph NW5.3 kmh NW 14.0 mph22.5 kmh 29.25 in990.5 mb 0.30 in7.6 mm 0.00 in0.0 mm 0.58 in14.7 mm
03:44 AM 51.4°F10.8°C 50.8°F10.4°C 98% 3.9 mph NW6.3 kmh NW 14.0 mph22.5 kmh 29.25 in990.5 mb 0.29 in7.4 mm 0.00 in0.0 mm 0.58 in14.7 mm
03:49 AM 51.3°F10.7°C 50.7°F10.4°C 98% 2.4 mph NW3.9 kmh NW 11.0 mph17.7 kmh 29.24 in990.2 mb 0.26 in6.6 mm 0.00 in0.0 mm 0.58 in14.7 mm
03:54 AM 51.3°F10.7°C 50.7°F10.4°C 98% 2.6 mph WNW4.2 kmh WNW 10.0 mph16.1 kmh 29.25 in990.5 mb 0.18 in4.6 mm 0.00 in0.0 mm 0.58 in14.7 mm
03:59 AM 51.2°F10.7°C 50.6°F10.3°C 98% 2.7 mph WNW4.3 kmh WNW 10.0 mph16.1 kmh 29.25 in990.5 mb 0.11 in2.8 mm 0.00 in0.0 mm 0.58 in14.7 mm
04:04 AM 51.1°F10.6°C 50.5°F10.3°C 98% 2.3 mph WNW3.7 kmh WNW 7.0 mph11.3 kmh 29.26 in990.9 mb 0.08 in2.0 mm 0.00 in0.0 mm 0.58 in14.7 mm
04:09 AM 51.0°F10.6°C 50.4°F10.2°C 98% 1.6 mph W2.6 kmh W 7.0 mph11.3 kmh 29.26 in990.9 mb 0.04 in1.0 mm 0.00 in0.0 mm 0.58 in14.7 mm
04:14 AM 50.9°F10.5°C 50.3°F10.2°C 98% 1.6 mph W2.6 kmh W 8.0 mph12.9 kmh 29.25 in990.5 mb 0.02 in0.5 mm 0.00 in0.0 mm 0.58 in14.7 mm
04:19 AM 50.8°F10.4°C 50.2°F10.1°C 98% 2.1 mph WNW3.4 kmh WNW 9.0 mph14.5 kmh 29.25 in990.5 mb 0.01 in0.3 mm 0.00 in0.0 mm 0.58 in14.7 mm
04:24 AM 50.8°F10.4°C 50.2°F10.1°C 98% 1.4 mph WNW2.3 kmh WNW 9.0 mph14.5 kmh 29.25 in990.5 mb 0.01 in0.3 mm 0.00 in0.0 mm 0.58 in14.7 mm
04:29 AM 50.7°F10.4°C 50.1°F10.1°C 98% 1.0 mph NW1.6 kmh NW 9.0 mph14.5 kmh 29.25 in990.5 mb 0.00 in0.0 mm 0.00 in0.0 mm 0.58 in14.7 mm
04:34 AM 50.6°F10.3°C 50.0°F10.0°C 98% 2.9 mph WNW4.7 kmh WNW 9.0 mph14.5 kmh 29.26 in990.9 mb 0.00 in0.0 mm 0.00 in0.0 mm 0.58 in14.7 mm
04:39 AM 50.6°F10.3°C 50.1°F10.1°C 98% 1.3 mph WNW2.1 kmh WNW 9.0 mph14.5 kmh 29.26 in990.9 mb 0.00 in0.0 mm 0.00 in0.0 mm 0.58 in14.7 mm
04:44 AM 50.6°F10.3°C 49.7°F9.8°C 97% 5.1 mph W8.2 kmh W 10.0 mph16.1 kmh 29.27 in991.2 mb 0.00 in0.0 mm 0.00 in0.0 mm 0.58 in14.7 mm
04:49 AM 50.6°F10.3°C 49.7°F9.8°C 97% 2.9 mph W4.7 kmh W 10.0 mph16.1 kmh 29.27 in991.2 mb 0.00 in0.0 mm 0.00 in0.0 mm 0.58 in14.7 mm
04:54 AM 50.5°F10.3°C 49.7°F9.8°C 97% 1.6 mph W2.6 kmh W 10.0 mph16.1 kmh 29.27 in991.2 mb 0.00 in0.0 mm 0.00 in0.0 mm 0.58 in14.7 mm
04:59 AM 50.5°F10.3°C 49.7°F9.8°C 97% 2.1 mph WSW3.4 kmh WSW 10.0 mph16.1 kmh 29.27 in991.2 mb 0.00 in0.0 mm 0.00 in0.0 mm 0.58 in14.7 mm
05:04 AM 50.5°F10.3°C 49.7°F9.8°C 97% 2.3 mph W3.7 kmh W 9.0 mph14.5 kmh 29.27 in991.2 mb 0.00 in0.0 mm 0.00 in0.0 mm 0.58 in14.7 mm
05:09 AM 50.4°F10.2°C 49.6°F9.8°C 97% 1.8 mph W2.9 kmh W 7.0 mph11.3 kmh 29.27 in991.2 mb 0.00 in0.0 mm 0.00 in0.0 mm 0.58 in14.7 mm
05:14 AM 50.4°F10.2°C 49.6°F9.8°C 97% 1.6 mph W2.6 kmh W 7.0 mph11.3 kmh 29.27 in991.2 mb 0.00 in0.0 mm 0.00 in0.0 mm 0.58 in14.7 mm
05:19 AM 50.4°F10.2°C 49.6°F9.8°C 97% 1.3 mph WSW2.1 kmh WSW 7.0 mph11.3 kmh 29.27 in991.2 mb 0.00 in0.0 mm 0.00 in0.0 mm 0.58 in14.7 mm
05:24 AM 50.3°F10.2°C 49.5°F9.7°C 97% 3.9 mph WSW6.3 kmh WSW 7.0 mph11.3 kmh 29.28 in991.5 mb 0.00 in0.0 mm 0.00 in0.0 mm 0.58 in14.7 mm
05:29 AM 50.3°F10.2°C 49.5°F9.7°C 97% 3.2 mph WSW5.1 kmh WSW 7.0 mph11.3 kmh 29.28 in991.5 mb 0.00 in0.0 mm 0.00 in0.0 mm 0.58 in14.7 mm
05:34 AM 50.3°F10.2°C 49.5°F9.7°C 97% 1.5 mph SW2.4 kmh SW 7.0 mph11.3 kmh 29.28 in991.5 mb 0.00 in0.0 mm 0.00 in0.0 mm 0.58 in14.7 mm
05:39 AM 50.2°F10.1°C 49.4°F9.7°C 97% 1.5 mph WSW2.4 kmh WSW 7.0 mph11.3 kmh 29.29 in991.9 mb 0.00 in0.0 mm 0.00 in0.0 mm 0.58 in14.7 mm
05:44 AM 50.2°F10.1°C 49.4°F9.7°C 97% 3.6 mph WSW5.8 kmh WSW 10.0 mph16.1 kmh 29.29 in991.9 mb 0.00 in0.0 mm 0.00 in0.0 mm 0.58 in14.7 mm
05:49 AM 50.2°F10.1°C 49.4°F9.7°C 97% 3.4 mph W5.5 kmh W 10.0 mph16.1 kmh 29.28 in991.5 mb 0.00 in0.0 mm 0.00 in0.0 mm 0.58 in14.7 mm
05:54 AM 50.2°F10.1°C 49.4°F9.7°C 97% 4.2 mph W6.8 kmh W 10.0 mph16.1 kmh 29.29 in991.9 mb 0.00 in0.0 mm 0.00 in0.0 mm 0.58 in14.7 mm
05:59 AM 50.1°F10.1°C 49.0°F9.4°C 96% 4.4 mph W7.1 kmh W 13.0 mph20.9 kmh 29.29 in991.9 mb 0.00 in0.0 mm 0.00 in0.0 mm 0.58 in14.7 mm
06:04 AM 50.1°F10.1°C 49.0°F9.4°C 96% 2.6 mph W4.2 kmh W 13.0 mph20.9 kmh 29.29 in991.9 mb 0.00 in0.0 mm 0.00 in0.0 mm 0.58 in14.7 mm
06:09 AM 50.1°F10.1°C 49.0°F9.4°C 96% 1.8 mph W2.9 kmh W 13.0 mph20.9 kmh 29.29 in991.9 mb 0.00 in0.0 mm 0.00 in0.0 mm 0.58 in14.7 mm
06:14 AM 50.0°F10.0°C 48.9°F9.4°C 96% 3.2 mph W5.1 kmh W 13.0 mph20.9 kmh 29.29 in991.9 mb 0.00 in0.0 mm 0.00 in0.0 mm 0.58 in14.7 mm
06:19 AM 50.0°F10.0°C 48.6°F9.2°C 95% 3.6 mph W5.8 kmh W 12.0 mph19.3 kmh 29.29 in991.9 mb 0.00 in0.0 mm 0.00 in0.0 mm 0.58 in14.7 mm
06:24 AM 50.0°F10.0°C 48.6°F9.2°C 95% 3.8 mph W6.1 kmh W 11.0 mph17.7 kmh 29.29 in991.9 mb 0.00 in0.0 mm 0.00 in0.0 mm 0.58 in14.7 mm
06:29 AM 50.0°F10.0°C 48.6°F9.2°C 95% 1.9 mph W3.1 kmh W 11.0 mph17.7 kmh 29.30 in992.2 mb 0.00 in0.0 mm 0.00 in0.0 mm 0.58 in14.7 mm
06:34 AM 50.0°F10.0°C 48.6°F9.2°C 95% 4.6 mph W7.4 kmh W 11.0 mph17.7 kmh 29.30 in992.2 mb 0.00 in0.0 mm 0.00 in0.0 mm 0.58 in14.7 mm
06:39 AM 49.9°F9.9°C 48.5°F9.2°C 95% 4.3 mph W6.9 kmh W 11.0 mph17.7 kmh 29.30 in992.2 mb 0.00 in0.0 mm 0.00 in0.0 mm 0.58 in14.7 mm
06:44 AM 49.9°F9.9°C 48.2°F9.0°C 94% 2.4 mph W3.9 kmh W 11.0 mph17.7 kmh 29.30 in992.2 mb 0.00 in0.0 mm 0.00 in0.0 mm 0.58 in14.7 mm
06:49 AM 49.9°F9.9°C 48.5°F9.2°C 95% 2.7 mph W4.3 kmh W 9.0 mph14.5 kmh 29.30 in992.2 mb 0.00 in0.0 mm 0.00 in0.0 mm 0.58 in14.7 mm
06:54 AM 49.9°F9.9°C 48.2°F9.0°C 94% 3.0 mph W4.8 kmh W 9.0 mph14.5 kmh 29.30 in992.2 mb 0.00 in0.0 mm 0.00 in0.0 mm 0.58 in14.7 mm
06:59 AM 49.9°F9.9°C 48.2°F9.0°C 94% 2.0 mph W3.2 kmh W 8.0 mph12.9 kmh 29.30 in992.2 mb 0.00 in0.0 mm 0.00 in0.0 mm 0.58 in14.7 mm
07:04 AM 49.9°F9.9°C 48.5°F9.2°C 95% 3.1 mph W5.0 kmh W 8.0 mph12.9 kmh 29.30 in992.2 mb 0.00 in0.0 mm 0.00 in0.0 mm 0.58 in14.7 mm
07:09 AM 49.9°F9.9°C 48.2°F9.0°C 94% 2.8 mph W4.5 kmh W 8.0 mph12.9 kmh 29.30 in992.2 mb 0.00 in0.0 mm 0.00 in0.0 mm 0.58 in14.7 mm
07:14 AM 49.8°F9.9°C 48.1°F8.9°C 94% 3.1 mph WNW5.0 kmh WNW 8.0 mph12.9 kmh 29.30 in992.2 mb 0.00 in0.0 mm 0.00 in0.0 mm 0.58 in14.7 mm
07:19 AM 49.8°F9.9°C 48.1°F8.9°C 94% 2.4 mph WNW3.9 kmh WNW 9.0 mph14.5 kmh 29.31 in992.6 mb 0.00 in0.0 mm 0.00 in0.0 mm 0.58 in14.7 mm
07:24 AM 49.8°F9.9°C 48.1°F8.9°C 94% 1.0 mph WSW1.6 kmh WSW 9.0 mph14.5 kmh 29.31 in992.6 mb 0.00 in0.0 mm 0.00 in0.0 mm 0.58 in14.7 mm
07:29 AM 49.8°F9.9°C 48.1°F8.9°C 94% 1.6 mph W2.6 kmh W 9.0 mph14.5 kmh 29.31 in992.6 mb 0.00 in0.0 mm 0.00 in0.0 mm 0.58 in14.7 mm
07:34 AM 49.8°F9.9°C 48.1°F8.9°C 94% 2.9 mph WSW4.7 kmh WSW 10.0 mph16.1 kmh 29.32 in992.9 mb 0.00 in0.0 mm 0.00 in0.0 mm 0.58 in14.7 mm
07:39 AM 49.8°F9.9°C 48.1°F8.9°C 94% 3.8 mph W6.1 kmh W 11.0 mph17.7 kmh 29.32 in992.9 mb 0.00 in0.0 mm 0.00 in0.0 mm 0.58 in14.7 mm
07:44 AM 49.8°F9.9°C 48.1°F8.9°C 94% 2.4 mph W3.9 kmh W 11.0 mph17.7 kmh 29.32 in992.9 mb 0.00 in0.0 mm 0.00 in0.0 mm 0.58 in14.7 mm
07:49 AM 49.8°F9.9°C 48.1°F8.9°C 94% 1.9 mph W3.1 kmh W 11.0 mph17.7 kmh 29.32 in992.9 mb 0.00 in0.0 mm 0.00 in0.0 mm 0.58 in14.7 mm
07:54 AM 49.8°F9.9°C 48.1°F8.9°C 94% 1.4 mph WNW2.3 kmh WNW 11.0 mph17.7 kmh 29.32 in992.9 mb 0.00 in0.0 mm 0.00 in0.0 mm 0.58 in14.7 mm
07:59 AM 49.8°F9.9°C 48.1°F8.9°C 94% 2.1 mph W3.4 kmh W 10.0 mph16.1 kmh 29.33 in993.2 mb 0.00 in0.0 mm 0.00 in0.0 mm 0.58 in14.7 mm
08:04 AM 49.8°F9.9°C 48.1°F8.9°C 94% 2.8 mph W4.5 kmh W 12.0 mph19.3 kmh 29.33 in993.2 mb 0.00 in0.0 mm 0.00 in0.0 mm 0.58 in14.7 mm
08:09 AM 49.9°F9.9°C 48.2°F9.0°C 94% 2.3 mph W3.7 kmh W 12.0 mph19.3 kmh 29.34 in993.6 mb 0.00 in0.0 mm 0.00 in0.0 mm 0.58 in14.7 mm
08:14 AM 49.9°F9.9°C 48.2°F9.0°C 94% 3.1 mph W5.0 kmh W 12.0 mph19.3 kmh 29.34 in993.6 mb 0.00 in0.0 mm 0.00 in0.0 mm 0.58 in14.7 mm
08:19 AM 49.9°F9.9°C 48.2°F9.0°C 94% 3.7 mph W6.0 kmh W 12.0 mph19.3 kmh 29.34 in993.6 mb 0.00 in0.0 mm 0.00 in0.0 mm 0.58 in14.7 mm
08:24 AM 49.8°F9.9°C 48.1°F8.9°C 94% 1.3 mph W2.1 kmh W 11.0 mph17.7 kmh 29.34 in993.6 mb 0.00 in0.0 mm 0.00 in0.0 mm 0.58 in14.7 mm
08:29 AM 49.7°F9.8°C 48.0°F8.9°C 94% 3.0 mph WSW4.8 kmh WSW 11.0 mph17.7 kmh 29.34 in993.6 mb 0.00 in0.0 mm 0.00 in0.0 mm 0.58 in14.7 mm
08:34 AM 49.7°F9.8°C 48.0°F8.9°C 94% 1.6 mph W2.6 kmh W 11.0 mph17.7 kmh 29.35 in993.9 mb 0.00 in0.0 mm 0.00 in0.0 mm 0.58 in14.7 mm
08:39 AM 49.6°F9.8°C 47.9°F8.8°C 94% 1.8 mph WSW2.9 kmh WSW 8.0 mph12.9 kmh 29.35 in993.9 mb 0.00 in0.0 mm 0.00 in0.0 mm 0.58 in14.7 mm
08:43 AM 49.7°F9.8°C 48.0°F8.9°C 94% 1.0 mph WSW1.6 kmh WSW 8.0 mph12.9 kmh 29.35 in993.9 mb 0.00 in0.0 mm 0.00 in0.0 mm 0.58 in14.7 mm
08:48 AM 49.6°F9.8°C 47.9°F8.8°C 94% 4.1 mph WSW6.6 kmh WSW 11.0 mph17.7 kmh 29.36 in994.2 mb 0.00 in0.0 mm 0.00 in0.0 mm 0.58 in14.7 mm
08:53 AM 49.7°F9.8°C 48.0°F8.9°C 94% 4.5 mph WSW7.2 kmh WSW 11.0 mph17.7 kmh 29.36 in994.2 mb 0.00 in0.0 mm 0.00 in0.0 mm 0.58 in14.7 mm
08:58 AM 49.7°F9.8°C 47.7°F8.7°C 93% 4.0 mph W6.4 kmh W 11.0 mph17.7 kmh 29.36 in994.2 mb 0.00 in0.0 mm 0.00 in0.0 mm 0.58 in14.7 mm
09:03 AM 49.7°F9.8°C 47.7°F8.7°C 93% 4.5 mph W7.2 kmh W 11.0 mph17.7 kmh 29.36 in994.2 mb 0.00 in0.0 mm 0.00 in0.0 mm 0.58 in14.7 mm
09:08 AM 49.7°F9.8°C 47.7°F8.7°C 93% 4.6 mph WNW7.4 kmh WNW 11.0 mph17.7 kmh 29.36 in994.2 mb 0.00 in0.0 mm 0.00 in0.0 mm 0.58 in14.7 mm
09:13 AM 49.7°F9.8°C 47.4°F8.6°C 92% 4.1 mph W6.6 kmh W 12.0 mph19.3 kmh 29.37 in994.6 mb 0.00 in0.0 mm 0.00 in0.0 mm 0.58 in14.7 mm
09:18 AM 49.5°F9.7°C 47.5°F8.6°C 93% 4.7 mph WSW7.6 kmh WSW 13.0 mph20.9 kmh 29.37 in994.6 mb 0.00 in0.0 mm 0.00 in0.0 mm 0.58 in14.7 mm
09:23 AM 49.3°F9.6°C 47.3°F8.5°C 93% 3.2 mph W5.1 kmh W 13.0 mph20.9 kmh 29.37 in994.6 mb 0.00 in0.0 mm 0.00 in0.0 mm 0.58 in14.7 mm
09:28 AM 49.2°F9.6°C 46.9°F8.3°C 92% 7.5 mph WNW12.1 kmh WNW 17.0 mph27.4 kmh 29.38 in994.9 mb 0.00 in0.0 mm 0.00 in0.0 mm 0.58 in14.7 mm
09:33 AM 49.2°F9.6°C 46.9°F8.3°C 92% 2.7 mph W4.3 kmh W 17.0 mph27.4 kmh 29.38 in994.9 mb 0.00 in0.0 mm 0.00 in0.0 mm 0.58 in14.7 mm
09:38 AM 49.2°F9.6°C 46.9°F8.3°C 92% 4.8 mph WNW7.7 kmh WNW 17.0 mph27.4 kmh 29.38 in994.9 mb 0.00 in0.0 mm 0.00 in0.0 mm 0.58 in14.7 mm
09:43 AM 49.2°F9.6°C 46.4°F8.0°C 90% 9.4 mph WNW15.1 kmh WNW 18.0 mph29.0 kmh 29.39 in995.3 mb 0.00 in0.0 mm 0.00 in0.0 mm 0.58 in14.7 mm
09:48 AM 49.1°F9.5°C 46.3°F7.9°C 90% 5.9 mph WNW9.5 kmh WNW 18.0 mph29.0 kmh 29.39 in995.3 mb 0.00 in0.0 mm 0.00 in0.0 mm 0.58 in14.7 mm
09:53 AM 49.1°F9.5°C 46.3°F7.9°C 90% 8.1 mph WNW13.0 kmh WNW 18.0 mph29.0 kmh 29.39 in995.3 mb 0.00 in0.0 mm 0.00 in0.0 mm 0.58 in14.7 mm
09:58 AM 49.1°F9.5°C 46.3°F7.9°C 90% 9.5 mph W15.3 kmh W 18.0 mph29.0 kmh 29.40 in995.6 mb 0.00 in0.0 mm 0.00 in0.0 mm 0.58 in14.7 mm
10:03 AM 49.0°F9.4°C 46.4°F8.0°C 91% 6.0 mph W9.7 kmh W 18.0 mph29.0 kmh 29.40 in995.6 mb 0.00 in0.0 mm 0.00 in0.0 mm 0.58 in14.7 mm
10:08 AM 49.0°F9.4°C 46.4°F8.0°C 91% 4.1 mph WNW6.6 kmh WNW 18.0 mph29.0 kmh 29.41 in995.9 mb 0.00 in0.0 mm 0.00 in0.0 mm 0.58 in14.7 mm
10:13 AM 48.9°F9.4°C 46.6°F8.1°C 92% 4.3 mph WNW6.9 kmh WNW 18.0 mph29.0 kmh 29.41 in995.9 mb 0.00 in0.0 mm 0.00 in0.0 mm 0.58 in14.7 mm
10:18 AM 48.7°F9.3°C 46.7°F8.2°C 93% 2.4 mph W3.9 kmh W 14.0 mph22.5 kmh 29.41 in995.9 mb 0.00 in0.0 mm 0.00 in0.0 mm 0.58 in14.7 mm
10:23 AM 48.6°F9.2°C 46.3°F7.9°C 92% 6.3 mph W10.1 kmh W 19.0 mph30.6 kmh 29.42 in996.3 mb 0.00 in0.0 mm 0.00 in0.0 mm 0.58 in14.7 mm
10:28 AM 48.5°F9.2°C 46.0°F7.8°C 91% 8.9 mph WNW14.3 kmh WNW 19.0 mph30.6 kmh 29.42 in996.3 mb 0.00 in0.0 mm 0.00 in0.0 mm 0.58 in14.7 mm
10:33 AM 48.4°F9.1°C 46.1°F7.8°C 92% 4.9 mph W7.9 kmh W 19.0 mph30.6 kmh 29.42 in996.3 mb 0.00 in0.0 mm 0.00 in0.0 mm 0.58 in14.7 mm
10:38 AM 48.5°F9.2°C 46.2°F7.9°C 92% 5.9 mph WNW9.5 kmh WNW 19.0 mph30.6 kmh 29.42 in996.3 mb 0.00 in0.0 mm 0.00 in0.0 mm 0.58 in14.7 mm
10:43 AM 48.4°F9.1°C 46.1°F7.8°C 92% 8.5 mph W13.7 kmh W 17.0 mph27.4 kmh 29.42 in996.3 mb 0.00 in0.0 mm 0.00 in0.0 mm 0.58 in14.7 mm
10:48 AM 48.4°F9.1°C 46.1°F7.8°C 92% 4.3 mph WNW6.9 kmh WNW 17.0 mph27.4 kmh 29.43 in996.6 mb 0.00 in0.0 mm 0.00 in0.0 mm 0.58 in14.7 mm
10:53 AM 48.3°F9.1°C 46.3°F7.9°C 93% 3.1 mph W5.0 kmh W 17.0 mph27.4 kmh 29.43 in996.6 mb 0.01 in0.3 mm 0.12 in3.0 mm 0.59 in15.0 mm
10:58 AM 48.2°F9.0°C 46.2°F7.9°C 93% 4.9 mph WNW7.9 kmh WNW 17.0 mph27.4 kmh 29.44 in997.0 mb 0.01 in0.3 mm 0.00 in0.0 mm 0.59 in15.0 mm
11:03 AM 48.2°F9.0°C 46.2°F7.9°C 93% 2.6 mph W4.2 kmh W 15.0 mph24.1 kmh 29.44 in997.0 mb 0.01 in0.3 mm 0.00 in0.0 mm 0.59 in15.0 mm
11:08 AM 48.1°F8.9°C 46.4°F8.0°C 94% 4.3 mph W6.9 kmh W 12.0 mph19.3 kmh 29.44 in997.0 mb 0.01 in0.3 mm 0.00 in0.0 mm 0.59 in15.0 mm
11:13 AM 48.1°F8.9°C 46.1°F7.8°C 93% 8.7 mph W14.0 kmh W 17.0 mph27.4 kmh 29.44 in997.0 mb 0.01 in0.3 mm 0.00 in0.0 mm 0.59 in15.0 mm
11:18 AM 48.1°F8.9°C 46.1°F7.8°C 93% 3.3 mph W5.3 kmh W 17.0 mph27.4 kmh 29.44 in997.0 mb 0.01 in0.3 mm 0.00 in0.0 mm 0.59 in15.0 mm
11:23 AM 48.0°F8.9°C 46.0°F7.8°C 93% 5.5 mph W8.9 kmh W 17.0 mph27.4 kmh 29.45 in997.3 mb 0.01 in0.3 mm 0.00 in0.0 mm 0.59 in15.0 mm
11:28 AM 48.0°F8.9°C 46.0°F7.8°C 93% 4.2 mph W6.8 kmh W 17.0 mph27.4 kmh 29.45 in997.3 mb 0.01 in0.3 mm 0.00 in0.0 mm 0.59 in15.0 mm
11:33 AM 48.1°F8.9°C 45.8°F7.7°C 92% 5.2 mph W8.4 kmh W 13.0 mph20.9 kmh 29.45 in997.3 mb 0.01 in0.3 mm 0.00 in0.0 mm 0.59 in15.0 mm
11:38 AM 48.2°F9.0°C 45.9°F7.7°C 92% 3.9 mph W6.3 kmh W 12.0 mph19.3 kmh 29.45 in997.3 mb 0.01 in0.3 mm 0.00 in0.0 mm 0.59 in15.0 mm
11:43 AM 48.3°F9.1°C 45.8°F7.7°C 91% 9.9 mph WNW15.9 kmh WNW 18.0 mph29.0 kmh 29.45 in997.3 mb 0.01 in0.3 mm 0.00 in0.0 mm 0.59 in15.0 mm
11:48 AM 48.6°F9.2°C 45.8°F7.7°C 90% 6.0 mph W9.7 kmh W 18.0 mph29.0 kmh 29.45 in997.3 mb 0.01 in0.3 mm 0.00 in0.0 mm 0.59 in15.0 mm
11:53 AM 48.6°F9.2°C 45.5°F7.5°C 89% 8.5 mph W13.7 kmh W 18.0 mph29.0 kmh 29.45 in997.3 mb 0.00 in0.0 mm 0.00 in0.0 mm 0.59 in15.0 mm
11:58 AM 48.7°F9.3°C 45.6°F7.6°C 89% 6.9 mph WNW11.1 kmh WNW 18.0 mph29.0 kmh 29.46 in997.6 mb 0.00 in0.0 mm 0.00 in0.0 mm 0.59 in15.0 mm
12:03 PM 48.8°F9.3°C 45.7°F7.6°C 89% 4.6 mph WNW7.4 kmh WNW 17.0 mph27.4 kmh 29.46 in997.6 mb 0.00 in0.0 mm 0.00 in0.0 mm 0.59 in15.0 mm
12:08 PM 48.8°F9.3°C 45.4°F7.4°C 88% 5.4 mph W8.7 kmh W 21.0 mph33.8 kmh 29.46 in997.6 mb 0.00 in0.0 mm 0.00 in0.0 mm 0.59 in15.0 mm
12:13 PM 48.9°F9.4°C 45.2°F7.3°C 87% 7.1 mph W11.4 kmh W 21.0 mph33.8 kmh 29.46 in997.6 mb 0.00 in0.0 mm 0.00 in0.0 mm 0.59 in15.0 mm
12:18 PM 49.0°F9.4°C 45.3°F7.4°C 87% 5.7 mph W9.2 kmh W 21.0 mph33.8 kmh 29.46 in997.6 mb 0.00 in0.0 mm 0.00 in0.0 mm 0.59 in15.0 mm
12:23 PM 48.9°F9.4°C 45.5°F7.5°C 88% 3.7 mph W6.0 kmh W 20.0 mph32.2 kmh 29.46 in997.6 mb 0.00 in0.0 mm 0.00 in0.0 mm 0.59 in15.0 mm
12:28 PM 48.8°F9.3°C 45.4°F7.4°C 88% 9.3 mph W15.0 kmh W 20.0 mph32.2 kmh 29.46 in997.6 mb 0.00 in0.0 mm 0.00 in0.0 mm 0.59 in15.0 mm
12:33 PM 48.9°F9.4°C 45.2°F7.3°C 87% 6.1 mph WNW9.8 kmh WNW 20.0 mph32.2 kmh 29.46 in997.6 mb 0.00 in0.0 mm 0.00 in0.0 mm 0.59 in15.0 mm
12:38 PM 49.0°F9.4°C 45.3°F7.4°C 87% 5.5 mph W8.9 kmh W 20.0 mph32.2 kmh 29.46 in997.6 mb 0.00 in0.0 mm 0.00 in0.0 mm 0.59 in15.0 mm
12:43 PM 48.7°F9.3°C 45.0°F7.2°C 87% 9.3 mph W15.0 kmh W 20.0 mph32.2 kmh 29.47 in998.0 mb 0.00 in0.0 mm 0.00 in0.0 mm 0.59 in15.0 mm
12:48 PM 48.2°F9.0°C 44.5°F6.9°C 87% 9.8 mph W15.8 kmh W 23.0 mph37.0 kmh 29.47 in998.0 mb 0.00 in0.0 mm 0.00 in0.0 mm 0.59 in15.0 mm
12:53 PM 47.6°F8.7°C 44.2°F6.8°C 88% 8.3 mph W13.4 kmh W 23.0 mph37.0 kmh 29.48 in998.3 mb 0.00 in0.0 mm 0.00 in0.0 mm 0.59 in15.0 mm
12:58 PM 47.1°F8.4°C 44.0°F6.7°C 89% 9.6 mph W15.4 kmh W 23.0 mph37.0 kmh 29.48 in998.3 mb 0.00 in0.0 mm 0.00 in0.0 mm 0.59 in15.0 mm
01:03 PM 46.8°F8.2°C 44.0°F6.7°C 90% 10.0 mph W16.1 kmh W 23.0 mph37.0 kmh 29.48 in998.3 mb 0.00 in0.0 mm 0.00 in0.0 mm 0.59 in15.0 mm
01:08 PM 46.8°F8.2°C 44.0°F6.7°C 90% 7.3 mph W11.7 kmh W 23.0 mph37.0 kmh 29.48 in998.3 mb 0.00 in0.0 mm 0.00 in0.0 mm 0.59 in15.0 mm
01:13 PM 46.9°F8.3°C 43.5°F6.4°C 88% 6.7 mph W10.8 kmh W 26.0 mph41.8 kmh 29.49 in998.6 mb 0.00 in0.0 mm 0.00 in0.0 mm 0.59 in15.0 mm
01:18 PM 47.1°F8.4°C 43.4°F6.3°C 87% 8.3 mph WNW13.4 kmh WNW 26.0 mph41.8 kmh 29.49 in998.6 mb 0.00 in0.0 mm 0.00 in0.0 mm 0.59 in15.0 mm
01:23 PM 47.4°F8.6°C 43.1°F6.2°C 85% 8.2 mph WNW13.2 kmh WNW 26.0 mph41.8 kmh 29.49 in998.6 mb 0.00 in0.0 mm 0.00 in0.0 mm 0.59 in15.0 mm
01:28 PM 47.6°F8.7°C 43.3°F6.3°C 85% 7.5 mph WNW12.1 kmh WNW 24.0 mph38.6 kmh 29.49 in998.6 mb 0.00 in0.0 mm 0.00 in0.0 mm 0.59 in15.0 mm
01:33 PM 47.9°F8.8°C 43.3°F6.3°C 84% 5.6 mph W9.0 kmh W 24.0 mph38.6 kmh 29.49 in998.6 mb 0.00 in0.0 mm 0.00 in0.0 mm 0.59 in15.0 mm
01:38 PM 47.9°F8.8°C 43.3°F6.3°C 84% 7.5 mph W12.1 kmh W 21.0 mph33.8 kmh 29.50 in999.0 mb 0.00 in0.0 mm 0.00 in0.0 mm 0.59 in15.0 mm
01:42 PM 47.6°F8.7°C 43.3°F6.3°C 85% 9.3 mph W15.0 kmh W 21.0 mph33.8 kmh 29.50 in999.0 mb 0.00 in0.0 mm 0.00 in0.0 mm 0.59 in15.0 mm
01:47 PM 47.2°F8.4°C 42.9°F6.1°C 85% 7.2 mph W11.6 kmh W 19.0 mph30.6 kmh 29.50 in999.0 mb 0.00 in0.0 mm 0.00 in0.0 mm 0.59 in15.0 mm
01:52 PM 46.9°F8.3°C 42.6°F5.9°C 85% 7.7 mph W12.4 kmh W 18.0 mph29.0 kmh 29.51 in999.3 mb 0.00 in0.0 mm 0.00 in0.0 mm 0.59 in15.0 mm
01:57 PM 46.8°F8.2°C 42.5°F5.8°C 85% 7.2 mph W11.6 kmh W 18.0 mph29.0 kmh 29.51 in999.3 mb 0.00 in0.0 mm 0.00 in0.0 mm 0.59 in15.0 mm
02:02 PM 46.8°F8.2°C 42.8°F6.0°C 86% 7.1 mph W11.4 kmh W 18.0 mph29.0 kmh 29.51 in999.3 mb 0.00 in0.0 mm 0.00 in0.0 mm 0.59 in15.0 mm
02:07 PM 46.9°F8.3°C 42.6°F5.9°C 85% 7.0 mph W11.3 kmh W 21.0 mph33.8 kmh 29.51 in999.3 mb 0.00 in0.0 mm 0.00 in0.0 mm 0.59 in15.0 mm
02:12 PM 47.0°F8.3°C 42.7°F5.9°C 85% 7.2 mph W11.6 kmh W 21.0 mph33.8 kmh 29.51 in999.3 mb 0.00 in0.0 mm 0.00 in0.0 mm 0.59 in15.0 mm
02:17 PM 47.0°F8.3°C 42.4°F5.8°C 84% 11.4 mph W18.3 kmh W 22.0 mph35.4 kmh 29.51 in999.3 mb 0.00 in0.0 mm 0.00 in0.0 mm 0.59 in15.0 mm
02:22 PM 47.1°F8.4°C 42.8°F6.0°C 85% 5.4 mph W8.7 kmh W 22.0 mph35.4 kmh 29.52 in999.7 mb 0.00 in0.0 mm 0.00 in0.0 mm 0.59 in15.0 mm
02:27 PM 47.3°F8.5°C 42.7°F5.9°C 84% 11.1 mph W17.9 kmh W 22.0 mph35.4 kmh 29.52 in999.7 mb 0.00 in0.0 mm 0.00 in0.0 mm 0.59 in15.0 mm
02:32 PM 47.3°F8.5°C 42.7°F5.9°C 84% 6.6 mph W10.6 kmh W 22.0 mph35.4 kmh 29.52 in999.7 mb 0.00 in0.0 mm 0.00 in0.0 mm 0.59 in15.0 mm
02:37 PM 47.2°F8.4°C 42.6°F5.9°C 84% 9.1 mph W14.6 kmh W 20.0 mph32.2 kmh 29.53 in1000.0 mb 0.00 in0.0 mm 0.00 in0.0 mm 0.59 in15.0 mm
02:42 PM 47.2°F8.4°C 42.9°F6.1°C 85% 3.6 mph WNW5.8 kmh WNW 20.0 mph32.2 kmh 29.53 in1000.0 mb 0.00 in0.0 mm 0.00 in0.0 mm 0.59 in15.0 mm
02:47 PM 47.2°F8.4°C 42.9°F6.1°C 85% 5.8 mph W9.3 kmh W 20.0 mph32.2 kmh 29.53 in1000.0 mb 0.00 in0.0 mm 0.00 in0.0 mm 0.59 in15.0 mm
02:52 PM 47.1°F8.4°C 42.8°F6.0°C 85% 7.6 mph W12.2 kmh W 18.0 mph29.0 kmh 29.54 in1000.3 mb 0.00 in0.0 mm 0.00 in0.0 mm 0.59 in15.0 mm
02:57 PM 47.1°F8.4°C 42.5°F5.8°C 84% 7.2 mph W11.6 kmh W 18.0 mph29.0 kmh 29.54 in1000.3 mb 0.00 in0.0 mm 0.00 in0.0 mm 0.59 in15.0 mm
03:02 PM 47.1°F8.4°C 42.5°F5.8°C 84% 6.1 mph W9.8 kmh W 18.0 mph29.0 kmh 29.55 in1000.7 mb 0.00 in0.0 mm 0.00 in0.0 mm 0.59 in15.0 mm
03:07 PM 47.0°F8.3°C 42.4°F5.8°C 84% 6.2 mph W10.0 kmh W 20.0 mph32.2 kmh 29.55 in1000.7 mb 0.00 in0.0 mm 0.00 in0.0 mm 0.59 in15.0 mm
03:12 PM 47.1°F8.4°C 42.5°F5.8°C 84% 6.7 mph W10.8 kmh W 20.0 mph32.2 kmh 29.55 in1000.7 mb 0.00 in0.0 mm 0.00 in0.0 mm 0.59 in15.0 mm
03:17 PM 47.1°F8.4°C 42.2°F5.7°C 83% 10.8 mph W17.4 kmh W 20.0 mph32.2 kmh 29.56 in1001.0 mb 0.00 in0.0 mm 0.00 in0.0 mm 0.59 in15.0 mm
03:22 PM 47.2°F8.4°C 42.3°F5.7°C 83% 6.4 mph W10.3 kmh W 20.0 mph32.2 kmh 29.56 in1001.0 mb 0.00 in0.0 mm 0.00 in0.0 mm 0.59 in15.0 mm
03:28 PM 47.2°F8.4°C 42.3°F5.7°C 83% 5.0 mph W8.0 kmh W 18.0 mph29.0 kmh 29.56 in1001.0 mb 0.00 in0.0 mm 0.00 in0.0 mm 0.59 in15.0 mm
03:32 PM 47.1°F8.4°C 42.5°F5.8°C 84% 3.6 mph W5.8 kmh W 18.0 mph29.0 kmh 29.57 in1001.4 mb 0.00 in0.0 mm 0.00 in0.0 mm 0.59 in15.0 mm
03:37 PM 46.9°F8.3°C 42.3°F5.7°C 84% 5.4 mph W8.7 kmh W 17.0 mph27.4 kmh 29.57 in1001.4 mb 0.00 in0.0 mm 0.00 in0.0 mm 0.59 in15.0 mm
03:42 PM 46.8°F8.2°C 42.2°F5.7°C 84% 6.4 mph W10.3 kmh W 14.0 mph22.5 kmh 29.58 in1001.7 mb 0.00 in0.0 mm 0.00 in0.0 mm 0.59 in15.0 mm
03:47 PM 46.6°F8.1°C 42.0°F5.6°C 84% 7.1 mph W11.4 kmh W 15.0 mph24.1 kmh 29.58 in1001.7 mb 0.00 in0.0 mm 0.00 in0.0 mm 0.59 in15.0 mm
03:53 PM 46.6°F8.1°C 42.0°F5.6°C 84% 3.4 mph W5.5 kmh W 15.0 mph24.1 kmh 29.58 in1001.7 mb 0.00 in0.0 mm 0.00 in0.0 mm 0.59 in15.0 mm
03:58 PM 46.6°F8.1°C 42.0°F5.6°C 84% 5.7 mph W9.2 kmh W 15.0 mph24.1 kmh 29.59 in1002.0 mb 0.00 in0.0 mm 0.00 in0.0 mm 0.59 in15.0 mm
04:03 PM 46.5°F8.1°C 41.9°F5.5°C 84% 5.6 mph W9.0 kmh W 19.0 mph30.6 kmh 29.59 in1002.0 mb 0.00 in0.0 mm 0.00 in0.0 mm 0.59 in15.0 mm
04:08 PM 46.4°F8.0°C 41.8°F5.4°C 84% 8.7 mph W14.0 kmh W 19.0 mph30.6 kmh 29.59 in1002.0 mb 0.00 in0.0 mm 0.00 in0.0 mm 0.59 in15.0 mm
04:13 PM 46.3°F7.9°C 41.7°F5.4°C 84% 6.5 mph W10.5 kmh W 19.0 mph30.6 kmh 29.60 in1002.4 mb 0.00 in0.0 mm 0.00 in0.0 mm 0.59 in15.0 mm
04:18 PM 46.3°F7.9°C 41.7°F5.4°C 84% 6.7 mph W10.8 kmh W 19.0 mph30.6 kmh 29.60 in1002.4 mb 0.00 in0.0 mm 0.00 in0.0 mm 0.59 in15.0 mm
04:23 PM 46.2°F7.9°C 41.3°F5.2°C 83% 10.8 mph W17.4 kmh W 19.0 mph30.6 kmh 29.61 in1002.7 mb 0.00 in0.0 mm 0.00 in0.0 mm 0.59 in15.0 mm
04:28 PM 46.3°F7.9°C 41.4°F5.2°C 83% 7.1 mph W11.4 kmh W 19.0 mph30.6 kmh 29.61 in1002.7 mb 0.00 in0.0 mm 0.00 in0.0 mm 0.59 in15.0 mm
04:33 PM 46.3°F7.9°C 41.4°F5.2°C 83% 10.2 mph W16.4 kmh W 30.0 mph48.3 kmh 29.62 in1003.0 mb 0.00 in0.0 mm 0.00 in0.0 mm 0.59 in15.0 mm
04:38 PM 46.2°F7.9°C 41.3°F5.2°C 83% 9.9 mph W15.9 kmh W 30.0 mph48.3 kmh 29.62 in1003.0 mb 0.00 in0.0 mm 0.00 in0.0 mm 0.59 in15.0 mm
04:43 PM 46.2°F7.9°C 41.3°F5.2°C 83% 4.8 mph WNW7.7 kmh WNW 30.0 mph48.3 kmh 29.63 in1003.4 mb 0.00 in0.0 mm 0.00 in0.0 mm 0.59 in15.0 mm
04:48 PM 46.1°F7.8°C 41.2°F5.1°C 83% 8.3 mph W13.4 kmh W 30.0 mph48.3 kmh 29.63 in1003.4 mb 0.00 in0.0 mm 0.00 in0.0 mm 0.59 in15.0 mm
04:53 PM 46.0°F7.8°C 41.1°F5.1°C 83% 3.8 mph WSW6.1 kmh WSW 18.0 mph29.0 kmh 29.63 in1003.4 mb 0.00 in0.0 mm 0.00 in0.0 mm 0.59 in15.0 mm
04:58 PM 45.9°F7.7°C 41.0°F5.0°C 83% 8.3 mph W13.4 kmh W 18.0 mph29.0 kmh 29.63 in1003.4 mb 0.00 in0.0 mm 0.00 in0.0 mm 0.59 in15.0 mm
05:03 PM 45.8°F7.7°C 40.9°F4.9°C 83% 11.0 mph W17.7 kmh W 21.0 mph33.8 kmh 29.64 in1003.7 mb 0.00 in0.0 mm 0.00 in0.0 mm 0.59 in15.0 mm
05:08 PM 45.7°F7.6°C 40.8°F4.9°C 83% 8.1 mph W13.0 kmh W 21.0 mph33.8 kmh 29.64 in1003.7 mb 0.00 in0.0 mm 0.00 in0.0 mm 0.59 in15.0 mm
05:13 PM 45.6°F7.6°C 40.7°F4.8°C 83% 9.8 mph W15.8 kmh W 24.0 mph38.6 kmh 29.65 in1004.1 mb 0.00 in0.0 mm 0.00 in0.0 mm 0.59 in15.0 mm
05:18 PM 45.5°F7.5°C 40.6°F4.8°C 83% 8.8 mph WNW14.2 kmh WNW 24.0 mph38.6 kmh 29.65 in1004.1 mb 0.00 in0.0 mm 0.00 in0.0 mm 0.59 in15.0 mm
05:23 PM 45.5°F7.5°C 40.6°F4.8°C 83% 7.1 mph WNW11.4 kmh WNW 24.0 mph38.6 kmh 29.65 in1004.1 mb 0.00 in0.0 mm 0.00 in0.0 mm 0.59 in15.0 mm
05:28 PM 45.5°F7.5°C 40.6°F4.8°C 83% 8.9 mph W14.3 kmh W 24.0 mph38.6 kmh 29.66 in1004.4 mb 0.00 in0.0 mm 0.00 in0.0 mm 0.59 in15.0 mm
05:33 PM 45.4°F7.4°C 40.8°F4.9°C 84% 7.1 mph W11.4 kmh W 22.0 mph35.4 kmh 29.66 in1004.4 mb 0.00 in0.0 mm 0.00 in0.0 mm 0.59 in15.0 mm
05:38 PM 45.3°F7.4°C 40.7°F4.8°C 84% 9.3 mph W15.0 kmh W 22.0 mph35.4 kmh 29.67 in1004.7 mb 0.00 in0.0 mm 0.00 in0.0 mm 0.59 in15.0 mm
05:43 PM 45.1°F7.3°C 40.6°F4.8°C 84% 12.7 mph W20.4 kmh W 23.0 mph37.0 kmh 29.67 in1004.7 mb 0.00 in0.0 mm 0.00 in0.0 mm 0.59 in15.0 mm
05:48 PM 44.8°F7.1°C 40.6°F4.8°C 85% 7.1 mph W11.4 kmh W 23.0 mph37.0 kmh 29.67 in1004.7 mb 0.00 in0.0 mm 0.00 in0.0 mm 0.59 in15.0 mm
05:53 PM 44.7°F7.1°C 40.5°F4.7°C 85% 9.0 mph W14.5 kmh W 23.0 mph37.0 kmh 29.68 in1005.1 mb 0.00 in0.0 mm 0.00 in0.0 mm 0.59 in15.0 mm
05:58 PM 44.5°F6.9°C 40.6°F4.8°C 86% 8.1 mph W13.0 kmh W 23.0 mph37.0 kmh 29.68 in1005.1 mb 0.00 in0.0 mm 0.00 in0.0 mm 0.59 in15.0 mm
06:03 PM 44.5°F6.9°C 40.6°F4.8°C 86% 6.1 mph W9.8 kmh W 23.0 mph37.0 kmh 29.68 in1005.1 mb 0.00 in0.0 mm 0.00 in0.0 mm 0.59 in15.0 mm
06:08 PM 44.4°F6.9°C 40.5°F4.7°C 86% 7.4 mph WNW11.9 kmh WNW 23.0 mph37.0 kmh 29.68 in1005.1 mb 0.00 in0.0 mm 0.00 in0.0 mm 0.59 in15.0 mm
06:13 PM 44.4°F6.9°C 40.2°F4.6°C 85% 6.4 mph WNW10.3 kmh WNW 23.0 mph37.0 kmh 29.69 in1005.4 mb 0.00 in0.0 mm 0.00 in0.0 mm 0.59 in15.0 mm
06:18 PM 44.4°F6.9°C 40.5°F4.7°C 86% 8.5 mph W13.7 kmh W 23.0 mph37.0 kmh 29.70 in1005.8 mb 0.00 in0.0 mm 0.00 in0.0 mm 0.59 in15.0 mm
06:23 PM 44.4°F6.9°C 40.5°F4.7°C 86% 8.2 mph W13.2 kmh W 23.0 mph37.0 kmh 29.70 in1005.8 mb 0.00 in0.0 mm 0.00 in0.0 mm 0.59 in15.0 mm
06:28 PM 44.3°F6.8°C 40.4°F4.7°C 86% 6.2 mph W10.0 kmh W 23.0 mph37.0 kmh 29.70 in1005.8 mb 0.00 in0.0 mm 0.00 in0.0 mm 0.59 in15.0 mm
06:33 PM 44.2°F6.8°C 40.3°F4.6°C 86% 9.7 mph WNW15.6 kmh WNW 23.0 mph37.0 kmh 29.71 in1006.1 mb 0.00 in0.0 mm 0.00 in0.0 mm 0.59 in15.0 mm
06:38 PM 44.2°F6.8°C 40.3°F4.6°C 86% 9.7 mph W15.6 kmh W 21.0 mph33.8 kmh 29.71 in1006.1 mb 0.00 in0.0 mm 0.00 in0.0 mm 0.59 in15.0 mm
06:42 PM 44.2°F6.8°C 40.3°F4.6°C 86% 7.5 mph W12.1 kmh W 21.0 mph33.8 kmh 29.71 in1006.1 mb 0.00 in0.0 mm 0.00 in0.0 mm 0.59 in15.0 mm
06:47 PM 44.1°F6.7°C 40.2°F4.6°C 86% 9.0 mph WNW14.5 kmh WNW 21.0 mph33.8 kmh 29.72 in1006.4 mb 0.00 in0.0 mm 0.00 in0.0 mm 0.59 in15.0 mm
06:52 PM 44.1°F6.7°C 40.2°F4.6°C 86% 6.4 mph W10.3 kmh W 20.0 mph32.2 kmh 29.72 in1006.4 mb 0.00 in0.0 mm 0.00 in0.0 mm 0.59 in15.0 mm
06:57 PM 44.0°F6.7°C 40.1°F4.5°C 86% 6.4 mph WNW10.3 kmh WNW 22.0 mph35.4 kmh 29.72 in1006.4 mb 0.00 in0.0 mm 0.00 in0.0 mm 0.59 in15.0 mm
07:02 PM 44.0°F6.7°C 40.1°F4.5°C 86% 8.0 mph W12.9 kmh W 22.0 mph35.4 kmh 29.73 in1006.8 mb 0.00 in0.0 mm 0.00 in0.0 mm 0.59 in15.0 mm
07:07 PM 44.0°F6.7°C 40.1°F4.5°C 86% 11.1 mph W17.9 kmh W 22.0 mph35.4 kmh 29.73 in1006.8 mb 0.00 in0.0 mm 0.00 in0.0 mm 0.59 in15.0 mm
07:12 PM 44.0°F6.7°C 40.1°F4.5°C 86% 7.9 mph W12.7 kmh W 22.0 mph35.4 kmh 29.74 in1007.1 mb 0.00 in0.0 mm 0.00 in0.0 mm 0.59 in15.0 mm
07:17 PM 44.0°F6.7°C 40.1°F4.5°C 86% 9.0 mph WNW14.5 kmh WNW 21.0 mph33.8 kmh 29.74 in1007.1 mb 0.00 in0.0 mm 0.00 in0.0 mm 0.59 in15.0 mm
07:22 PM 44.0°F6.7°C 40.1°F4.5°C 86% 4.6 mph WNW7.4 kmh WNW 21.0 mph33.8 kmh 29.74 in1007.1 mb 0.00 in0.0 mm 0.00 in0.0 mm 0.59 in15.0 mm
07:27 PM 44.0°F6.7°C 40.1°F4.5°C 86% 6.8 mph WNW10.9 kmh WNW 18.0 mph29.0 kmh 29.74 in1007.1 mb 0.00 in0.0 mm 0.00 in0.0 mm 0.59 in15.0 mm
07:32 PM 44.0°F6.7°C 40.1°F4.5°C 86% 6.6 mph W10.6 kmh W 18.0 mph29.0 kmh 29.74 in1007.1 mb 0.00 in0.0 mm 0.00 in0.0 mm 0.59 in15.0 mm
07:37 PM 43.9°F6.6°C 40.3°F4.6°C 87% 7.3 mph W11.7 kmh W 17.0 mph27.4 kmh 29.75 in1007.5 mb 0.00 in0.0 mm 0.00 in0.0 mm 0.59 in15.0 mm
07:42 PM 43.9°F6.6°C 40.3°F4.6°C 87% 5.0 mph W8.0 kmh W 17.0 mph27.4 kmh 29.75 in1007.5 mb 0.00 in0.0 mm 0.00 in0.0 mm 0.59 in15.0 mm
07:47 PM 43.8°F6.6°C 40.2°F4.6°C 87% 6.4 mph W10.3 kmh W 18.0 mph29.0 kmh 29.75 in1007.5 mb 0.00 in0.0 mm 0.00 in0.0 mm 0.59 in15.0 mm
07:52 PM 43.8°F6.6°C 40.2°F4.6°C 87% 8.9 mph W14.3 kmh W 19.0 mph30.6 kmh 29.76 in1007.8 mb 0.00 in0.0 mm 0.00 in0.0 mm 0.59 in15.0 mm
07:57 PM 43.7°F6.5°C 40.1°F4.5°C 87% 10.0 mph W16.1 kmh W 20.0 mph32.2 kmh 29.76 in1007.8 mb 0.00 in0.0 mm 0.00 in0.0 mm 0.59 in15.0 mm
08:02 PM 43.6°F6.4°C 40.2°F4.6°C 88% 7.1 mph W11.4 kmh W 20.0 mph32.2 kmh 29.77 in1008.1 mb 0.00 in0.0 mm 0.00 in0.0 mm 0.59 in15.0 mm
08:07 PM 43.6°F6.4°C 40.3°F4.6°C 88% 7.6 mph W12.2 kmh W 20.0 mph32.2 kmh 29.77 in1008.1 mb 0.00 in0.0 mm 0.00 in0.0 mm 0.59 in15.0 mm
08:12 PM 43.5°F6.4°C 40.1°F4.5°C 88% 6.8 mph WNW10.9 kmh WNW 20.0 mph32.2 kmh 29.77 in1008.1 mb 0.00 in0.0 mm 0.00 in0.0 mm 0.59 in15.0 mm
08:17 PM 43.5°F6.4°C 40.1°F4.5°C 88% 7.9 mph W12.7 kmh W 19.0 mph30.6 kmh 29.78 in1008.5 mb 0.00 in0.0 mm 0.00 in0.0 mm 0.59 in15.0 mm
08:22 PM 43.5°F6.4°C 40.1°F4.5°C 88% 4.6 mph W7.4 kmh W 19.0 mph30.6 kmh 29.79 in1008.8 mb 0.00 in0.0 mm 0.00 in0.0 mm 0.59 in15.0 mm
08:27 PM 43.3°F6.3°C 40.0°F4.4°C 88% 6.8 mph W10.9 kmh W 19.0 mph30.6 kmh 29.78 in1008.5 mb 0.00 in0.0 mm 0.00 in0.0 mm 0.59 in15.0 mm
08:32 PM 43.1°F6.2°C 40.0°F4.4°C 89% 8.9 mph W14.3 kmh W 19.0 mph30.6 kmh 29.79 in1008.8 mb 0.00 in0.0 mm 0.00 in0.0 mm 0.59 in15.0 mm
08:37 PM 42.9°F6.1°C 39.9°F4.4°C 89% 8.2 mph W13.2 kmh W 19.0 mph30.6 kmh 29.79 in1008.8 mb 0.00 in0.0 mm 0.00 in0.0 mm 0.59 in15.0 mm
08:42 PM 42.8°F6.0°C 39.8°F4.3°C 89% 6.4 mph W10.3 kmh W 19.0 mph30.6 kmh 29.79 in1008.8 mb 0.00 in0.0 mm 0.00 in0.0 mm 0.59 in15.0 mm
08:47 PM 42.8°F6.0°C 39.8°F4.3°C 89% 9.1 mph WNW14.6 kmh WNW 20.0 mph32.2 kmh 29.79 in1008.8 mb 0.00 in0.0 mm 0.00 in0.0 mm 0.59 in15.0 mm
08:52 PM 42.8°F6.0°C 39.8°F4.3°C 89% 6.4 mph WNW10.3 kmh WNW 20.0 mph32.2 kmh 29.80 in1009.1 mb 0.00 in0.0 mm 0.00 in0.0 mm 0.59 in15.0 mm
08:57 PM 42.8°F6.0°C 39.7°F4.3°C 89% 5.8 mph W9.3 kmh W 20.0 mph32.2 kmh 29.80 in1009.1 mb 0.00 in0.0 mm 0.00 in0.0 mm 0.59 in15.0 mm
09:02 PM 42.8°F6.0°C 39.5°F4.2°C 88% 5.6 mph WNW9.0 kmh WNW 20.0 mph32.2 kmh 29.81 in1009.5 mb 0.00 in0.0 mm 0.00 in0.0 mm 0.59 in15.0 mm
09:07 PM 42.8°F6.0°C 39.5°F4.2°C 88% 4.9 mph W7.9 kmh W 20.0 mph32.2 kmh 29.81 in1009.5 mb 0.00 in0.0 mm 0.00 in0.0 mm 0.59 in15.0 mm
09:12 PM 42.8°F6.0°C 39.5°F4.2°C 88% 7.8 mph W12.6 kmh W 20.0 mph32.2 kmh 29.81 in1009.5 mb 0.00 in0.0 mm 0.00 in0.0 mm 0.59 in15.0 mm
09:17 PM 42.7°F5.9°C 39.4°F4.1°C 88% 5.4 mph WNW8.7 kmh WNW 17.0 mph27.4 kmh 29.82 in1009.8 mb 0.00 in0.0 mm 0.00 in0.0 mm 0.59 in15.0 mm
09:22 PM 42.8°F6.0°C 39.5°F4.2°C 88% 7.8 mph WNW12.6 kmh WNW 17.0 mph27.4 kmh 29.82 in1009.8 mb 0.00 in0.0 mm 0.00 in0.0 mm 0.59 in15.0 mm
09:27 PM 42.8°F6.0°C 39.5°F4.2°C 88% 7.8 mph W12.6 kmh W 17.0 mph27.4 kmh 29.82 in1009.8 mb 0.00 in0.0 mm 0.00 in0.0 mm 0.59 in15.0 mm
09:32 PM 42.7°F5.9°C 39.4°F4.1°C 88% 6.2 mph W10.0 kmh W 15.0 mph24.1 kmh 29.83 in1010.2 mb 0.00 in0.0 mm 0.00 in0.0 mm 0.59 in15.0 mm
09:37 PM 42.7°F5.9°C 39.4°F4.1°C 88% 7.0 mph W11.3 kmh W 15.0 mph24.1 kmh 29.83 in1010.2 mb 0.00 in0.0 mm 0.00 in0.0 mm 0.59 in15.0 mm
09:42 PM 42.6°F5.9°C 39.3°F4.1°C 88% 6.4 mph W10.3 kmh W 15.0 mph24.1 kmh 29.83 in1010.2 mb 0.00 in0.0 mm 0.00 in0.0 mm 0.59 in15.0 mm
09:47 PM 42.5°F5.8°C 39.2°F4.0°C 88% 5.5 mph W8.9 kmh W 19.0 mph30.6 kmh 29.83 in1010.2 mb 0.00 in0.0 mm 0.00 in0.0 mm 0.59 in15.0 mm
09:52 PM 42.5°F5.8°C 39.5°F4.2°C 89% 4.7 mph W7.6 kmh W 19.0 mph30.6 kmh 29.83 in1010.2 mb 0.00 in0.0 mm 0.00 in0.0 mm 0.59 in15.0 mm
09:57 PM 42.5°F5.8°C 39.2°F4.0°C 88% 6.8 mph W10.9 kmh W 19.0 mph30.6 kmh 29.84 in1010.5 mb 0.00 in0.0 mm 0.00 in0.0 mm 0.59 in15.0 mm
10:02 PM 42.5°F5.8°C 39.2°F4.0°C 88% 7.4 mph W11.9 kmh W 19.0 mph30.6 kmh 29.84 in1010.5 mb 0.00 in0.0 mm 0.00 in0.0 mm 0.59 in15.0 mm
10:07 PM 42.5°F5.8°C 39.2°F4.0°C 88% 6.6 mph WNW10.6 kmh WNW 19.0 mph30.6 kmh 29.85 in1010.8 mb 0.00 in0.0 mm 0.00 in0.0 mm 0.59 in15.0 mm
10:12 PM 42.5°F5.8°C 39.2°F4.0°C 88% 2.7 mph WNW4.3 kmh WNW 19.0 mph30.6 kmh 29.85 in1010.8 mb 0.00 in0.0 mm 0.00 in0.0 mm 0.59 in15.0 mm
10:17 PM 42.5°F5.8°C 39.2°F4.0°C 88% 3.2 mph W5.1 kmh W 19.0 mph30.6 kmh 29.86 in1011.2 mb 0.00 in0.0 mm 0.00 in0.0 mm 0.59 in15.0 mm
10:22 PM 42.4°F5.8°C 38.8°F3.8°C 87% 2.9 mph W4.7 kmh W 19.0 mph30.6 kmh 29.86 in1011.2 mb 0.00 in0.0 mm 0.00 in0.0 mm 0.59 in15.0 mm
10:27 PM 42.4°F5.8°C 38.5°F3.6°C 86% 9.1 mph W14.6 kmh W 16.0 mph25.7 kmh 29.86 in1011.2 mb 0.00 in0.0 mm 0.00 in0.0 mm 0.59 in15.0 mm
10:32 PM 42.4°F5.8°C 38.8°F3.8°C 87% 5.1 mph W8.2 kmh W 16.0 mph25.7 kmh 29.87 in1011.5 mb 0.00 in0.0 mm 0.00 in0.0 mm 0.59 in15.0 mm
10:37 PM 42.4°F5.8°C 38.5°F3.6°C 86% 7.5 mph W12.1 kmh W 18.0 mph29.0 kmh 29.87 in1011.5 mb 0.00 in0.0 mm 0.00 in0.0 mm 0.59 in15.0 mm
10:42 PM 42.4°F5.8°C 38.2°F3.4°C 85% 6.9 mph WNW11.1 kmh WNW 18.0 mph29.0 kmh 29.87 in1011.5 mb 0.00 in0.0 mm 0.00 in0.0 mm 0.59 in15.0 mm
10:47 PM 42.4°F5.8°C 38.5°F3.6°C 86% 5.1 mph W8.2 kmh W 18.0 mph29.0 kmh 29.87 in1011.5 mb 0.00 in0.0 mm 0.00 in0.0 mm 0.59 in15.0 mm
10:52 PM 42.3°F5.7°C 38.4°F3.6°C 86% 4.1 mph W6.6 kmh W 18.0 mph29.0 kmh 29.88 in1011.9 mb 0.00 in0.0 mm 0.00 in0.0 mm 0.59 in15.0 mm
10:57 PM 42.3°F5.7°C 38.7°F3.7°C 87% 3.3 mph WNW5.3 kmh WNW 14.0 mph22.5 kmh 29.88 in1011.9 mb 0.00 in0.0 mm 0.00 in0.0 mm 0.59 in15.0 mm
11:02 PM 42.2°F5.7°C 38.9°F3.8°C 88% 5.0 mph W8.0 kmh W 14.0 mph22.5 kmh 29.88 in1011.9 mb 0.00 in0.0 mm 0.00 in0.0 mm 0.59 in15.0 mm
11:07 PM 42.1°F5.6°C 38.8°F3.8°C 88% 3.1 mph W5.0 kmh W 13.0 mph20.9 kmh 29.88 in1011.9 mb 0.00 in0.0 mm 0.00 in0.0 mm 0.59 in15.0 mm
11:12 PM 42.0°F5.6°C 39.0°F3.9°C 89% 5.5 mph W8.9 kmh W 14.0 mph22.5 kmh 29.88 in1011.9 mb 0.00 in0.0 mm 0.00 in0.0 mm 0.59 in15.0 mm
11:17 PM 41.9°F5.5°C 38.9°F3.8°C 89% 5.3 mph W8.5 kmh W 16.0 mph25.7 kmh 29.88 in1011.9 mb 0.00 in0.0 mm 0.00 in0.0 mm 0.59 in15.0 mm
11:22 PM 41.9°F5.5°C 38.9°F3.8°C 89% 6.1 mph W9.8 kmh W 16.0 mph25.7 kmh 29.88 in1011.9 mb 0.00 in0.0 mm 0.00 in0.0 mm 0.59 in15.0 mm
11:27 PM 41.9°F5.5°C 38.9°F3.8°C 89% 6.2 mph WNW10.0 kmh WNW 16.0 mph25.7 kmh 29.88 in1011.9 mb 0.00 in0.0 mm 0.00 in0.0 mm 0.59 in15.0 mm
11:32 PM 41.9°F5.5°C 38.6°F3.7°C 88% 4.6 mph WNW7.4 kmh WNW 16.0 mph25.7 kmh 29.89 in1012.2 mb 0.00 in0.0 mm 0.00 in0.0 mm 0.59 in15.0 mm
11:37 PM 41.9°F5.5°C 38.6°F3.7°C 88% 4.2 mph W6.8 kmh W 17.0 mph27.4 kmh 29.89 in1012.2 mb 0.00 in0.0 mm 0.00 in0.0 mm 0.59 in15.0 mm
11:41 PM 41.8°F5.4°C 38.5°F3.6°C 88% 6.8 mph W10.9 kmh W 17.0 mph27.4 kmh 29.89 in1012.2 mb 0.00 in0.0 mm 0.00 in0.0 mm 0.59 in15.0 mm
11:46 PM 41.6°F5.3°C 38.6°F3.7°C 89% 4.2 mph W6.8 kmh W 17.0 mph27.4 kmh 29.89 in1012.2 mb 0.00 in0.0 mm 0.00 in0.0 mm 0.59 in15.0 mm
11:51 PM 41.5°F5.3°C 38.5°F3.6°C 89% 6.6 mph W10.6 kmh W 17.0 mph27.4 kmh 29.90 in1012.5 mb 0.00 in0.0 mm 0.00 in0.0 mm 0.59 in15.0 mm
11:56 PM 41.4°F5.2°C 38.4°F3.6°C 89% 5.0 mph W8.0 kmh W 14.0 mph22.5 kmh 29.90 in1012.5 mb 0.00 in0.0 mm 0.00 in0.0 mm 0.59 in15.0 mm